createdAt,value
2023-03-31T00:01:44.199Z,78.71
2023-03-31T00:04:37.264Z,78.72
2023-03-31T00:07:31.606Z,78.69
2023-03-31T00:10:27.593Z,78.64
2023-03-31T00:13:13.441Z,78.73
2023-03-31T00:16:09.496Z,78.66
2023-03-31T00:19:02.601Z,78.55
2023-03-31T00:21:55.960Z,78.49
2023-03-31T00:24:49.013Z,78.43
2023-03-31T00:27:45.511Z,78.38
2023-03-31T00:30:38.262Z,78.29
2023-03-31T00:33:31.835Z,78.37
2023-03-31T00:36:28.876Z,78.46
2023-03-31T00:39:12.884Z,78.36
2023-03-31T00:42:09.043Z,78.37
2023-03-31T00:45:28.697Z,78.34
2023-03-31T00:48:24.243Z,78.21
2023-03-31T00:51:08.525Z,78.24
2023-03-31T00:54:05.150Z,78.21
2023-03-31T00:57:03.504Z,78.24
2023-03-31T00:59:51.208Z,78.14
2023-03-31T01:02:52.114Z,78.07
2023-03-31T01:05:50.263Z,77.93
2023-03-31T01:08:43.440Z,77.93
2023-03-31T01:11:37.399Z,77.91
2023-03-31T01:14:31.709Z,77.86
2023-03-31T01:17:09.943Z,77.93
2023-03-31T01:20:12.605Z,77.97
2023-03-31T01:23:47.053Z,77.84
2023-03-31T01:26:48.936Z,77.76
2023-03-31T01:29:59.716Z,77.78
2023-03-31T01:33:08.066Z,77.73
2023-03-31T01:36:24.759Z,77.70
2023-03-31T01:39:24.246Z,77.68
2023-03-31T01:42:25.364Z,77.72
2023-03-31T01:45:17.917Z,77.74
2023-03-31T01:48:18.312Z,77.77
2023-03-31T01:51:17.469Z,77.76
2023-03-31T01:54:20.796Z,77.71
2023-03-31T01:57:19.415Z,77.71
2023-03-31T02:00:00.557Z,77.84
2023-03-31T02:02:42.326Z,78.03
2023-03-31T02:05:39.658Z,78.08
2023-03-31T02:08:37.677Z,77.96
2023-03-31T02:11:24.339Z,77.84
2023-03-31T02:14:21.993Z,78.01
2023-03-31T02:17:20.193Z,78.21
2023-03-31T02:19:54.145Z,78.07
2023-03-31T02:22:50.718Z,77.57
2023-03-31T02:25:48.722Z,77.55
2023-03-31T02:28:40.229Z,77.43
2023-03-31T02:31:49.006Z,77.12
2023-03-31T02:34:41.907Z,77.65
2023-03-31T02:37:24.153Z,77.78
2023-03-31T02:40:20.886Z,77.57
2023-03-31T02:43:13.855Z,77.47
2023-03-31T02:46:07.012Z,77.30
2023-03-31T02:49:02.882Z,77.41
2023-03-31T02:52:27.246Z,77.54
2023-03-31T02:55:30.770Z,77.54
2023-03-31T03:01:55.812Z,77.75
2023-03-31T03:05:08.415Z,77.93
2023-03-31T03:08:14.991Z,78.06
2023-03-31T03:11:18.142Z,78.41
2023-03-31T03:14:20.676Z,78.77
2023-03-31T03:17:20.140Z,78.97
2023-03-31T03:20:16.281Z,79.34
2023-03-31T03:23:09.139Z,79.63
2023-03-31T03:26:02.026Z,80.01
2023-03-31T03:28:55.455Z,80.20
2023-03-31T03:31:48.241Z,80.31
2023-03-31T03:34:41.164Z,80.47
2023-03-31T03:37:34.072Z,80.53
2023-03-31T03:40:27.052Z,80.58
2023-03-31T03:43:19.915Z,80.75
2023-03-31T03:46:12.753Z,80.71
2023-03-31T03:49:05.724Z,80.67
2023-03-31T03:51:58.635Z,80.65
2023-03-31T03:54:51.527Z,80.57
2023-03-31T03:57:44.278Z,80.56
2023-03-31T04:00:21.038Z,80.63
2023-03-31T04:03:14.049Z,80.64
2023-03-31T04:05:51.122Z,80.68
2023-03-31T04:08:27.612Z,80.67
2023-03-31T04:11:21.975Z,80.65
2023-03-31T04:14:14.707Z,80.62
2023-03-31T04:17:07.526Z,80.67
2023-03-31T04:19:42.427Z,80.72
2023-03-31T04:22:20.700Z,80.71
2023-03-31T04:25:16.666Z,80.68
2023-03-31T04:28:11.828Z,80.72
2023-03-31T04:30:47.536Z,80.71
2023-03-31T04:33:23.561Z,80.75
2023-03-31T04:36:08.196Z,80.64
2023-03-31T04:39:01.706Z,80.58
2023-03-31T04:41:54.894Z,80.52
2023-03-31T04:44:38.516Z,80.49
2023-03-31T04:47:31.358Z,80.49
2023-03-31T04:50:24.270Z,80.54
2023-03-31T04:53:10.885Z,80.51
2023-03-31T04:55:43.557Z,80.52
2023-03-31T04:58:36.427Z,80.43
2023-03-31T05:01:33.300Z,80.32
2023-03-31T05:04:26.565Z,80.23
2023-03-31T05:07:20.659Z,80.19
2023-03-31T05:10:14.026Z,80.03
2023-03-31T05:13:07.104Z,79.99
2023-03-31T05:16:00.514Z,79.85
2023-03-31T05:18:55.549Z,79.72
2023-03-31T05:21:49.079Z,79.63
2023-03-31T05:24:31.702Z,79.55
2023-03-31T05:27:14.602Z,79.45
2023-03-31T05:30:09.344Z,79.34
2023-03-31T05:33:02.190Z,79.21
2023-03-31T05:35:55.436Z,79.05
2023-03-31T05:38:48.373Z,78.88
2023-03-31T05:41:41.817Z,78.67
2023-03-31T05:44:34.831Z,78.47
2023-03-31T05:47:27.650Z,78.38
2023-03-31T05:50:20.701Z,78.32
2023-03-31T05:53:13.469Z,78.18
2023-03-31T05:55:47.427Z,78.08
2023-03-31T05:58:23.070Z,78.00
2023-03-31T06:01:20.074Z,77.86
2023-03-31T06:04:13.178Z,77.71
2023-03-31T06:07:00.251Z,77.54
2023-03-31T06:09:33.257Z,77.30
2023-03-31T06:12:26.224Z,77.40
2023-03-31T06:15:19.762Z,77.55
2023-03-31T06:18:12.903Z,76.60
2023-03-31T06:21:06.848Z,75.63
2023-03-31T06:23:50.501Z,74.86
2023-03-31T06:26:36.182Z,74.41
2023-03-31T06:29:29.391Z,76.48
2023-03-31T06:32:22.462Z,74.94
2023-03-31T06:35:15.988Z,73.17
2023-03-31T06:37:51.620Z,72.25
2023-03-31T06:40:46.113Z,71.62
2023-03-31T06:43:39.250Z,70.46
2023-03-31T06:46:15.545Z,69.27
2023-03-31T06:49:08.862Z,68.99
2023-03-31T06:52:01.811Z,67.73
2023-03-31T06:54:46.672Z,66.74
2023-03-31T06:57:29.914Z,65.99
2023-03-31T07:00:22.988Z,65.35
2023-03-31T07:03:19.259Z,64.99
2023-03-31T07:06:12.417Z,64.05
2023-03-31T07:08:48.624Z,63.02
2023-03-31T07:11:33.080Z,62.95
2023-03-31T07:14:08.067Z,62.20
2023-03-31T07:16:51.917Z,61.89
2023-03-31T07:19:38.020Z,61.83
2023-03-31T07:22:11.713Z,61.91
2023-03-31T07:24:44.521Z,61.84
2023-03-31T07:27:17.393Z,62.01
2023-03-31T07:29:50.930Z,62.10
2023-03-31T07:32:28.438Z,61.95
2023-03-31T07:35:12.848Z,62.36
2023-03-31T07:37:47.628Z,62.16
2023-03-31T07:40:41.814Z,62.31
2023-03-31T07:43:23.613Z,62.28
2023-03-31T07:46:08.672Z,61.96
2023-03-31T07:49:03.567Z,62.03
2023-03-31T07:51:36.388Z,62.00
2023-03-31T07:54:09.494Z,61.29
2023-03-31T07:56:44.383Z,61.14
2023-03-31T07:59:20.791Z,61.02
2023-03-31T08:01:54.103Z,60.68
2023-03-31T08:04:30.631Z,59.97
2023-03-31T08:07:06.077Z,59.33
2023-03-31T08:09:39.126Z,58.76
2023-03-31T08:12:12.196Z,59.79
2023-03-31T08:15:07.946Z,60.11
2023-03-31T08:17:41.647Z,60.00
2023-03-31T08:20:35.312Z,60.45
2023-03-31T08:23:28.346Z,61.06
2023-03-31T08:26:22.032Z,60.54
2023-03-31T08:29:02.538Z,60.13
2023-03-31T08:31:45.503Z,60.27
2023-03-31T08:34:38.722Z,60.49
2023-03-31T08:37:32.525Z,60.51
2023-03-31T08:40:29.568Z,60.73
2023-03-31T08:43:29.376Z,60.53
2023-03-31T08:46:23.016Z,60.93
2023-03-31T08:49:21.093Z,60.09
2023-03-31T08:52:19.980Z,60.36
2023-03-31T08:55:19.790Z,60.11
2023-03-31T08:58:09.800Z,60.16
2023-03-31T09:01:10.604Z,59.92
2023-03-31T09:04:20.655Z,59.43
2023-03-31T09:07:21.623Z,59.76
2023-03-31T09:10:33.117Z,59.29
2023-03-31T09:13:46.483Z,58.89
2023-03-31T09:16:26.058Z,58.13
2023-03-31T09:19:24.514Z,58.20
2023-03-31T09:22:13.629Z,57.86
2023-03-31T09:25:13.421Z,57.96
2023-03-31T09:28:14.013Z,58.06
2023-03-31T09:31:15.262Z,57.82
2023-03-31T09:34:16.718Z,57.71
2023-03-31T09:37:10.136Z,57.20
2023-03-31T09:40:12.611Z,57.14
2023-03-31T09:43:09.767Z,57.15
2023-03-31T09:46:05.364Z,56.67
2023-03-31T09:49:08.217Z,56.70
2023-03-31T09:52:27.287Z,56.17
2023-03-31T09:55:38.200Z,55.86
2023-03-31T09:58:32.425Z,55.77
2023-03-31T10:01:27.393Z,56.30
2023-03-31T10:04:25.786Z,55.86
2023-03-31T10:07:25.376Z,55.20
2023-03-31T10:10:32.350Z,54.56
2023-03-31T10:13:27.296Z,54.53
2023-03-31T10:16:28.912Z,53.70
2023-03-31T10:19:26.540Z,54.61
2023-03-31T10:22:18.437Z,54.38
2023-03-31T10:25:17.678Z,54.24
2023-03-31T10:28:18.482Z,54.26
2023-03-31T10:31:11.976Z,53.46
2023-03-31T10:34:09.274Z,53.14
2023-03-31T10:37:06.042Z,53.63
2023-03-31T10:39:47.829Z,53.03
2023-03-31T10:42:34.081Z,52.72
2023-03-31T10:45:37.157Z,52.71
2023-03-31T10:48:33.212Z,53.10
2023-03-31T10:51:19.926Z,52.91
2023-03-31T10:53:55.285Z,52.88
2023-03-31T10:56:52.610Z,52.94
2023-03-31T11:00:18.415Z,53.16
2023-03-31T11:03:39.421Z,53.15
2023-03-31T11:06:43.892Z,52.97
2023-03-31T11:09:35.600Z,52.87
2023-03-31T11:12:23.051Z,51.57
2023-03-31T11:15:23.785Z,51.39
2023-03-31T11:18:15.587Z,51.15
2023-03-31T11:21:20.499Z,52.05
2023-03-31T11:24:27.137Z,52.19
2023-03-31T11:27:37.912Z,52.16
2023-03-31T11:30:33.943Z,52.19
2023-03-31T11:33:32.426Z,51.86
2023-03-31T11:36:37.060Z,52.11
2023-03-31T11:39:43.558Z,51.87
2023-03-31T11:42:30.458Z,51.82
2023-03-31T11:45:12.644Z,51.61
2023-03-31T11:48:06.953Z,51.95
2023-03-31T11:50:47.219Z,51.82
2023-03-31T11:53:35.171Z,52.06
2023-03-31T11:56:12.151Z,52.38
2023-03-31T11:59:07.574Z,52.68
2023-03-31T12:02:12.043Z,52.74
2023-03-31T12:04:48.885Z,53.00
2023-03-31T12:07:47.198Z,53.37
2023-03-31T12:10:34.051Z,53.88
2023-03-31T12:13:36.979Z,54.00
2023-03-31T12:16:46.126Z,54.44
2023-03-31T12:19:35.568Z,54.29
2023-03-31T12:22:18.888Z,54.32
2023-03-31T12:25:15.737Z,54.54
2023-03-31T12:28:10.063Z,54.66
2023-03-31T12:31:04.558Z,54.42
2023-03-31T12:33:53.396Z,54.08
2023-03-31T12:36:40.174Z,53.83
2023-03-31T12:39:24.430Z,53.81
2023-03-31T12:42:32.569Z,54.07
2023-03-31T12:45:15.961Z,53.77
2023-03-31T12:48:08.540Z,53.41
2023-03-31T12:51:02.835Z,53.28
2023-03-31T12:53:46.321Z,53.29
2023-03-31T12:56:19.225Z,52.98
2023-03-31T12:58:52.062Z,52.80
2023-03-31T13:01:36.633Z,52.69
2023-03-31T13:04:22.457Z,53.15
2023-03-31T13:07:17.287Z,53.19
2023-03-31T13:10:34.017Z,53.73
2023-03-31T13:13:18.554Z,54.20
2023-03-31T13:15:58.017Z,54.43
2023-03-31T13:18:36.349Z,54.72
2023-03-31T13:21:12.657Z,54.94
2023-03-31T13:24:10.366Z,55.07
2023-03-31T13:26:47.338Z,55.12
2023-03-31T13:29:29.146Z,55.12
2023-03-31T13:32:25.703Z,55.14
2023-03-31T13:35:23.418Z,55.15
2023-03-31T13:38:16.576Z,55.36
2023-03-31T13:41:10.705Z,55.56
2023-03-31T13:44:17.757Z,55.43
2023-03-31T13:47:18.469Z,55.21
2023-03-31T13:50:07.338Z,55.40
2023-03-31T13:52:53.831Z,55.36
2023-03-31T13:55:56.796Z,55.09
2023-03-31T13:58:49.038Z,54.40
2023-03-31T14:02:05.633Z,54.17
2023-03-31T14:05:14.509Z,53.74
2023-03-31T14:08:15.044Z,53.43
2023-03-31T14:11:24.839Z,53.03
2023-03-31T14:14:18.781Z,52.96
2023-03-31T14:16:53.819Z,52.87
2023-03-31T14:20:08.087Z,53.26
2023-03-31T14:23:13.949Z,53.53
2023-03-31T14:26:13.299Z,53.93
2023-03-31T14:29:17.752Z,54.09
2023-03-31T14:32:01.169Z,54.19
2023-03-31T14:35:06.435Z,54.53
2023-03-31T14:37:44.838Z,54.69
2023-03-31T14:41:01.067Z,54.96
2023-03-31T14:43:58.331Z,55.15
2023-03-31T14:46:52.580Z,55.44
2023-03-31T14:49:40.826Z,55.66
2023-03-31T14:52:19.737Z,55.55
2023-03-31T14:54:56.621Z,55.80
2023-03-31T14:57:35.992Z,55.80
2023-03-31T15:00:14.400Z,56.15
2023-03-31T15:02:48.423Z,56.50
2023-03-31T15:05:35.331Z,56.64
2023-03-31T15:08:13.504Z,56.86
2023-03-31T15:10:54.020Z,56.80
2023-03-31T15:13:38.069Z,56.72
2023-03-31T15:16:35.229Z,56.66
2023-03-31T15:19:18.143Z,56.72
2023-03-31T15:22:01.850Z,56.81
2023-03-31T15:24:55.175Z,56.96
2023-03-31T15:27:37.973Z,57.21
2023-03-31T15:30:19.012Z,57.19
2023-03-31T15:32:54.804Z,57.28
2023-03-31T15:35:37.331Z,57.57
2023-03-31T15:38:33.021Z,58.11
2023-03-31T15:41:13.038Z,58.37
2023-03-31T15:44:08.800Z,58.71
2023-03-31T15:47:01.786Z,59.11
2023-03-31T15:49:57.678Z,59.21
2023-03-31T15:52:38.496Z,59.47
2023-03-31T15:55:32.150Z,59.99
2023-03-31T15:58:20.017Z,60.26
2023-03-31T16:01:05.250Z,60.75
2023-03-31T16:03:53.714Z,61.15
2023-03-31T16:06:40.884Z,61.44
2023-03-31T16:09:43.695Z,61.19
2023-03-31T16:12:39.631Z,61.45
2023-03-31T16:15:17.423Z,61.38
2023-03-31T16:17:57.211Z,61.84
2023-03-31T16:20:37.204Z,63.78
2023-03-31T16:23:26.731Z,66.79
2023-03-31T16:26:03.215Z,63.53
2023-03-31T16:28:40.575Z,62.67
2023-03-31T16:31:34.559Z,63.49
2023-03-31T16:34:34.615Z,61.79
2023-03-31T16:37:11.604Z,58.33
2023-03-31T16:40:07.566Z,56.99
2023-03-31T16:42:41.384Z,57.71
2023-03-31T16:45:19.448Z,58.83
2023-03-31T16:48:15.121Z,59.40
2023-03-31T16:50:51.583Z,60.55
2023-03-31T16:53:29.431Z,63.49
2023-03-31T16:56:02.467Z,65.81
2023-03-31T16:58:37.019Z,63.59
2023-03-31T17:01:13.349Z,62.70
2023-03-31T17:04:07.048Z,62.26
2023-03-31T17:06:40.258Z,62.19
2023-03-31T17:09:13.147Z,62.34
2023-03-31T17:12:06.363Z,62.79
2023-03-31T17:14:50.142Z,64.11
2023-03-31T17:17:34.252Z,65.20
2023-03-31T17:20:19.630Z,63.80
2023-03-31T17:22:55.571Z,62.42
2023-03-31T17:25:31.904Z,62.86
2023-03-31T17:28:04.975Z,62.61
2023-03-31T17:30:48.977Z,61.97
2023-03-31T17:33:22.464Z,61.37
2023-03-31T17:35:59.062Z,60.51
2023-03-31T17:38:42.153Z,58.40
2023-03-31T17:41:17.938Z,57.50
2023-03-31T17:43:51.471Z,58.28
2023-03-31T17:46:24.892Z,59.69
2023-03-31T17:49:18.380Z,64.11
2023-03-31T17:51:51.128Z,66.02
2023-03-31T17:54:44.661Z,65.04
2023-03-31T17:57:18.102Z,63.63
2023-03-31T17:59:53.814Z,62.51
2023-03-31T18:02:47.177Z,60.73
2023-03-31T18:05:33.867Z,57.65
2023-03-31T18:08:17.846Z,56.75
2023-03-31T18:11:01.777Z,57.97
2023-03-31T18:13:36.525Z,59.69
2023-03-31T18:16:15.002Z,64.12
2023-03-31T18:19:01.844Z,66.68
2023-03-31T18:21:54.811Z,65.26
2023-03-31T18:24:28.058Z,63.46
2023-03-31T18:27:01.049Z,62.36
2023-03-31T18:29:54.349Z,61.33
2023-03-31T18:32:40.664Z,61.90
2023-03-31T18:35:34.488Z,61.61
2023-03-31T18:38:28.223Z,60.80
2023-03-31T18:41:21.496Z,58.17
2023-03-31T18:44:16.986Z,57.23
2023-03-31T18:47:10.299Z,58.16
2023-03-31T18:49:43.358Z,59.96
2023-03-31T18:52:16.671Z,62.96
2023-03-31T18:54:53.036Z,66.14
2023-03-31T18:57:28.586Z,66.46
2023-03-31T19:00:05.966Z,64.29
2023-03-31T19:02:49.716Z,63.40
2023-03-31T19:05:26.353Z,62.29
2023-03-31T19:08:09.771Z,61.38
2023-03-31T19:10:45.220Z,61.15
2023-03-31T19:13:39.031Z,60.70
2023-03-31T19:16:12.883Z,60.87
2023-03-31T19:18:49.135Z,57.92
2023-03-31T19:21:22.000Z,56.16
2023-03-31T19:23:58.179Z,56.64
2023-03-31T19:26:33.874Z,57.89
2023-03-31T19:29:19.465Z,59.05
2023-03-31T19:31:56.404Z,63.22
2023-03-31T19:34:29.272Z,66.73
2023-03-31T19:37:03.788Z,64.66
2023-03-31T19:39:56.736Z,62.34
2023-03-31T19:42:32.089Z,58.87
2023-03-31T19:45:10.513Z,56.40
2023-03-31T19:48:04.628Z,56.79
2023-03-31T19:50:41.243Z,58.15
2023-03-31T19:53:14.179Z,59.54
2023-03-31T19:55:56.028Z,63.81
2023-03-31T19:58:29.396Z,66.87
2023-03-31T20:01:26.120Z,64.32
2023-03-31T20:04:20.120Z,61.87
2023-03-31T20:07:14.940Z,57.86
2023-03-31T20:10:11.708Z,56.19
2023-03-31T20:13:04.762Z,57.15
2023-03-31T20:16:03.601Z,58.95
2023-03-31T20:18:57.809Z,64.70
2023-03-31T20:21:56.211Z,66.04
2023-03-31T20:24:35.018Z,63.26
2023-03-31T20:27:27.937Z,61.81
2023-03-31T20:30:21.214Z,58.10
2023-03-31T20:32:57.207Z,56.55
2023-03-31T20:35:50.436Z,57.56
2023-03-31T20:38:35.774Z,59.10
2023-03-31T20:41:31.203Z,64.19
2023-03-31T20:44:24.135Z,66.24
2023-03-31T20:47:00.634Z,63.68
2023-03-31T20:49:54.088Z,61.59
2023-03-31T20:52:47.738Z,58.29
2023-03-31T20:55:42.013Z,56.68
2023-03-31T20:58:35.690Z,57.92
2023-03-31T21:01:33.512Z,59.54
2023-03-31T21:04:25.432Z,65.33
2023-03-31T21:07:10.904Z,66.85
2023-03-31T21:09:56.569Z,64.25
2023-03-31T21:12:29.412Z,62.15
2023-03-31T21:15:15.767Z,60.81
2023-03-31T21:18:09.245Z,57.66
2023-03-31T21:20:42.277Z,56.66
2023-03-31T21:23:34.266Z,57.76
2023-03-31T21:26:10.880Z,59.26
2023-03-31T21:28:43.972Z,63.90
2023-03-31T21:31:23.835Z,66.43
2023-03-31T21:34:16.859Z,64.42
2023-03-31T21:37:10.189Z,62.21
2023-03-31T21:39:57.087Z,60.74
2023-03-31T21:42:33.950Z,57.91
2023-03-31T21:45:07.498Z,56.49
2023-03-31T21:47:43.007Z,57.45
2023-03-31T21:51:00.047Z,58.34
2023-03-31T21:53:43.517Z,59.82
2023-03-31T21:56:36.295Z,65.51
2023-03-31T21:59:13.856Z,67.17
2023-03-31T22:02:06.986Z,64.53
2023-03-31T22:04:43.961Z,62.42
2023-03-31T22:07:18.623Z,60.90
2023-03-31T22:10:12.495Z,58.04
2023-03-31T22:13:05.511Z,56.59
2023-03-31T22:15:41.567Z,58.06
2023-03-31T22:18:24.270Z,59.70
2023-03-31T22:21:04.026Z,64.71
2023-03-31T22:23:36.669Z,66.51
2023-03-31T22:26:11.736Z,64.52
2023-03-31T22:28:47.383Z,62.52
2023-03-31T22:31:31.423Z,61.34
2023-03-31T22:34:14.093Z,58.31
2023-03-31T22:36:47.180Z,57.01
2023-03-31T22:39:32.577Z,58.00
2023-03-31T22:42:25.479Z,59.13
2023-03-31T22:45:06.540Z,64.25
2023-03-31T22:47:42.274Z,66.37
2023-03-31T22:50:17.875Z,64.69
2023-03-31T22:53:11.037Z,62.79
2023-03-31T22:56:09.629Z,61.26
2023-03-31T22:59:03.476Z,60.23
2023-03-31T23:01:47.126Z,57.40
2023-03-31T23:04:40.026Z,55.98
2023-03-31T23:07:33.578Z,57.48
2023-03-31T23:10:27.320Z,58.91
2023-03-31T23:13:13.104Z,63.47
2023-03-31T23:15:45.825Z,66.14
2023-03-31T23:21:14.081Z,62.97
2023-03-31T23:23:47.268Z,61.29
2023-03-31T23:26:23.957Z,60.15
2023-03-31T23:29:01.209Z,57.67
2023-03-31T23:31:43.897Z,56.15
2023-03-31T23:34:19.312Z,57.25
2023-03-31T23:36:57.371Z,59.00
2023-03-31T23:39:50.166Z,59.92
2023-03-31T23:42:43.125Z,65.24
2023-03-31T23:45:25.791Z,66.75
2023-03-31T23:48:21.408Z,65.15
2023-03-31T23:51:14.239Z,63.44
2023-03-31T23:54:07.366Z,61.68
2023-03-31T23:56:51.386Z,60.55
2023-03-31T23:59:44.213Z,60.14
